createdAt,value
2023-05-09T00:00:58.183Z,14.14
2023-05-09T00:01:58.265Z,15.94
2023-05-09T00:02:58.318Z,15.76
2023-05-09T00:03:58.365Z,15.14
2023-05-09T00:04:58.386Z,14.13
2023-05-09T00:05:58.410Z,15.17
2023-05-09T00:06:58.447Z,13.95
2023-05-09T00:07:58.490Z,15.47
2023-05-09T00:08:58.521Z,13.55
2023-05-09T00:09:58.575Z,14.32
2023-05-09T00:10:58.627Z,13.88
2023-05-09T00:11:58.732Z,14.80
2023-05-09T00:12:58.775Z,14.04
2023-05-09T00:13:58.741Z,13.90
2023-05-09T00:14:58.776Z,14.62
2023-05-09T00:15:58.828Z,14.47
2023-05-09T00:16:58.953Z,14.36
2023-05-09T00:17:58.959Z,14.52
2023-05-09T00:18:59.010Z,15.50
2023-05-09T00:19:59.065Z,15.14
2023-05-09T00:20:59.115Z,14.09
2023-05-09T00:21:59.213Z,14.74
2023-05-09T00:22:59.256Z,14.43
2023-05-09T00:23:59.285Z,14.58
2023-05-09T00:24:59.351Z,14.35
2023-05-09T00:25:59.393Z,17.29
2023-05-09T00:26:59.463Z,15.04
2023-05-09T00:27:59.600Z,15.85
2023-05-09T00:28:59.544Z,14.90
2023-05-09T00:29:59.584Z,16.55
2023-05-09T00:30:59.615Z,14.32
2023-05-09T00:31:59.720Z,13.75
2023-05-09T00:32:59.790Z,15.16
2023-05-09T00:33:59.767Z,14.13
2023-05-09T00:34:59.786Z,15.25
2023-05-09T00:35:59.814Z,14.13
2023-05-09T00:36:59.853Z,14.25
2023-05-09T00:37:59.829Z,15.56
2023-05-09T00:38:59.922Z,15.34
2023-05-09T00:39:59.935Z,15.09
2023-05-09T00:40:59.993Z,16.48
2023-05-09T00:42:00.037Z,16.97
2023-05-09T00:43:00.125Z,15.78
2023-05-09T00:44:00.197Z,17.80
2023-05-09T00:45:00.198Z,16.83
2023-05-09T00:46:00.222Z,16.83
2023-05-09T00:47:00.249Z,17.01
2023-05-09T00:48:00.324Z,15.46
2023-05-09T00:49:00.374Z,16.07
2023-05-09T00:50:00.348Z,15.73
2023-05-09T00:51:00.394Z,17.28
2023-05-09T00:52:00.428Z,16.69
2023-05-09T00:53:00.466Z,16.53
2023-05-09T00:54:00.498Z,16.64
2023-05-09T00:55:00.484Z,14.00
2023-05-09T00:56:00.509Z,16.71
2023-05-09T00:57:00.561Z,15.07
2023-05-09T00:58:00.651Z,15.72
2023-05-09T00:59:00.661Z,16.32
2023-05-09T01:00:00.771Z,17.25
2023-05-09T01:01:00.785Z,15.64
2023-05-09T01:02:00.763Z,15.35
2023-05-09T01:03:00.932Z,16.16
2023-05-09T01:04:00.848Z,15.02
2023-05-09T01:05:00.897Z,16.16
2023-05-09T01:06:00.950Z,14.47
2023-05-09T01:07:01.004Z,15.11
2023-05-09T01:08:01.004Z,13.81
2023-05-09T01:09:00.997Z,14.61
2023-05-09T01:10:01.036Z,14.87
2023-05-09T01:11:01.140Z,15.42
2023-05-09T01:12:01.180Z,16.54
2023-05-09T01:13:01.190Z,17.76
2023-05-09T01:14:01.156Z,16.79
2023-05-09T01:15:01.250Z,16.22
2023-05-09T01:16:01.341Z,15.23
2023-05-09T01:17:01.187Z,16.76
2023-05-09T01:18:01.260Z,16.19
2023-05-09T01:19:01.170Z,14.76
2023-05-09T01:20:01.146Z,17.02
2023-05-09T01:21:01.168Z,15.65
2023-05-09T01:22:01.161Z,15.37
2023-05-09T01:23:01.170Z,14.49
2023-05-09T01:24:01.176Z,13.74
2023-05-09T01:25:01.198Z,15.09
2023-05-09T01:26:01.254Z,15.08
2023-05-09T01:27:01.637Z,14.51
2023-05-09T01:28:01.303Z,15.21
2023-05-09T01:29:01.353Z,16.25
2023-05-09T01:30:01.385Z,14.59
2023-05-09T01:31:01.450Z,15.81
2023-05-09T01:32:01.546Z,15.42
2023-05-09T01:33:01.562Z,16.02
2023-05-09T01:34:01.581Z,16.34
2023-05-09T01:35:01.591Z,16.33
2023-05-09T01:36:01.649Z,16.20
2023-05-09T01:37:01.694Z,17.25
2023-05-09T01:38:01.727Z,17.30
2023-05-09T01:39:01.747Z,17.54
2023-05-09T01:40:01.784Z,16.99
2023-05-09T01:41:01.803Z,15.22
2023-05-09T01:42:01.852Z,15.38
2023-05-09T01:43:01.926Z,15.45
2023-05-09T01:44:02.026Z,15.59
2023-05-09T01:45:01.956Z,15.29
2023-05-09T01:46:01.984Z,15.88
2023-05-09T01:47:02.035Z,15.75
2023-05-09T01:48:02.124Z,15.54
2023-05-09T01:49:02.046Z,16.55
2023-05-09T01:50:02.038Z,14.50
2023-05-09T01:51:02.035Z,15.49
2023-05-09T01:52:02.029Z,15.55
2023-05-09T01:53:02.073Z,14.25
2023-05-09T01:54:02.032Z,14.91
2023-05-09T01:55:02.031Z,14.61
2023-05-09T01:56:02.037Z,15.46
2023-05-09T01:57:02.014Z,15.25
2023-05-09T01:58:02.055Z,16.97
2023-05-09T01:59:02.008Z,18.17
2023-05-09T02:00:01.998Z,18.60
2023-05-09T02:01:02.034Z,19.82
2023-05-09T02:02:02.012Z,20.12
2023-05-09T02:03:02.008Z,18.94
2023-05-09T02:04:02.074Z,18.31
2023-05-09T02:05:01.975Z,17.14
2023-05-09T02:06:01.968Z,14.91
2023-05-09T02:07:01.964Z,17.70
2023-05-09T02:08:01.955Z,15.66
2023-05-09T02:09:01.993Z,15.20
2023-05-09T02:10:02.043Z,15.70
2023-05-09T02:11:02.022Z,15.42
2023-05-09T02:12:02.074Z,15.03
2023-05-09T02:13:02.083Z,16.17
2023-05-09T02:14:02.060Z,15.51
2023-05-09T02:15:02.105Z,14.77
2023-05-09T02:16:02.197Z,17.15
2023-05-09T02:17:02.259Z,15.18
2023-05-09T02:18:02.330Z,16.25
2023-05-09T02:19:02.307Z,15.83
2023-05-09T02:20:02.437Z,15.52
2023-05-09T02:21:02.417Z,16.40
2023-05-09T02:22:02.416Z,16.88
2023-05-09T02:23:02.430Z,14.59
2023-05-09T02:24:02.427Z,13.98
2023-05-09T02:25:02.453Z,14.63
2023-05-09T02:26:03.173Z,15.53
2023-05-09T02:27:02.524Z,17.22
2023-05-09T02:28:02.518Z,17.44
2023-05-09T02:29:02.554Z,18.02
2023-05-09T02:30:02.565Z,16.13
2023-05-09T02:31:02.566Z,15.13
2023-05-09T02:32:02.612Z,15.81
2023-05-09T02:33:02.639Z,15.33
2023-05-09T02:34:02.568Z,16.44
2023-05-09T02:35:02.673Z,15.31
2023-05-09T02:36:02.731Z,16.49
2023-05-09T02:37:02.678Z,15.88
2023-05-09T02:38:02.752Z,14.34
2023-05-09T02:39:02.820Z,14.00
2023-05-09T02:40:02.939Z,15.34
2023-05-09T02:41:02.948Z,15.84
2023-05-09T02:42:02.988Z,15.18
2023-05-09T02:43:03.031Z,14.82
2023-05-09T02:44:03.078Z,14.66
2023-05-09T02:45:03.139Z,13.92
2023-05-09T02:46:03.358Z,13.97
2023-05-09T02:47:03.296Z,14.74
2023-05-09T02:48:03.896Z,13.72
2023-05-09T02:49:03.374Z,15.41
2023-05-09T02:50:03.429Z,15.25
2023-05-09T02:51:03.457Z,14.74
2023-05-09T02:52:03.580Z,14.28
2023-05-09T02:53:03.521Z,13.74
2023-05-09T02:54:03.566Z,15.56
2023-05-09T02:55:03.547Z,15.05
2023-05-09T02:56:03.549Z,14.68
2023-05-09T02:57:03.551Z,14.97
2023-05-09T02:58:13.472Z,13.96
2023-05-09T02:59:04.548Z,16.98
2023-05-09T03:00:03.540Z,15.33
2023-05-09T03:01:03.573Z,14.96
2023-05-09T03:02:03.554Z,14.52
2023-05-09T03:03:03.612Z,14.32
2023-05-09T03:04:03.547Z,14.52
2023-05-09T03:05:03.518Z,13.65
2023-05-09T03:06:03.539Z,16.91
2023-05-09T03:07:03.524Z,14.04
2023-05-09T03:08:03.610Z,15.27
2023-05-09T03:09:03.550Z,13.67
2023-05-09T03:10:03.578Z,14.99
2023-05-09T03:11:03.601Z,13.12
2023-05-09T03:12:03.649Z,13.64
2023-05-09T03:13:03.657Z,13.85
2023-05-09T03:14:03.656Z,13.91
2023-05-09T03:15:03.698Z,13.13
2023-05-09T03:16:03.777Z,12.53
2023-05-09T03:17:03.801Z,13.00
2023-05-09T03:18:03.880Z,10.27
2023-05-09T03:19:03.900Z,11.04
2023-05-09T03:20:04.480Z,9.36
2023-05-09T03:21:03.985Z,10.17
2023-05-09T03:22:04.064Z,8.50
2023-05-09T03:23:04.035Z,10.01
2023-05-09T03:24:04.127Z,7.33
2023-05-09T03:25:04.100Z,8.46
2023-05-09T03:26:04.075Z,9.77
2023-05-09T03:27:04.101Z,8.63
2023-05-09T03:28:04.073Z,6.99
2023-05-09T03:29:04.078Z,7.30
2023-05-09T03:30:04.126Z,7.48
2023-05-09T03:31:04.247Z,7.43
2023-05-09T03:32:04.152Z,6.78
2023-05-09T03:33:04.162Z,7.37
2023-05-09T03:34:04.162Z,20.10
2023-05-09T03:35:04.196Z,14.07
2023-05-09T03:36:04.192Z,13.75
2023-05-09T03:37:04.215Z,13.54
2023-05-09T03:38:04.210Z,12.21
2023-05-09T03:39:04.237Z,7.60
2023-05-09T03:40:04.342Z,5.96
2023-05-09T03:41:04.321Z,6.41
2023-05-09T03:42:04.350Z,5.10
2023-05-09T03:43:04.368Z,5.61
2023-05-09T03:44:04.402Z,5.01
2023-05-09T03:45:04.435Z,5.84
2023-05-09T03:46:04.549Z,4.60
2023-05-09T03:47:04.789Z,6.08
2023-05-09T03:48:04.578Z,5.06
2023-05-09T03:49:04.569Z,5.86
2023-05-09T03:50:04.622Z,6.03
2023-05-09T03:51:04.666Z,5.54
2023-05-09T03:52:04.753Z,5.25
2023-05-09T03:53:04.796Z,5.68
2023-05-09T03:54:04.866Z,5.71
2023-05-09T03:55:04.936Z,5.44
2023-05-09T03:56:05.078Z,4.91
2023-05-09T03:57:05.046Z,4.97
2023-05-09T03:58:05.087Z,4.88
2023-05-09T03:59:05.079Z,4.60
2023-05-09T04:00:05.095Z,4.04
2023-05-09T04:01:05.098Z,4.83
2023-05-09T04:02:05.121Z,5.16
2023-05-09T04:03:05.124Z,4.77
2023-05-09T04:04:05.091Z,4.87
2023-05-09T04:05:05.022Z,4.87
2023-05-09T04:06:05.026Z,5.01
2023-05-09T04:07:05.003Z,4.80
2023-05-09T04:08:04.994Z,5.37
2023-05-09T04:09:04.966Z,4.86
2023-05-09T04:10:04.959Z,5.02
2023-05-09T04:11:04.939Z,4.74
2023-05-09T04:12:05.004Z,4.67
2023-05-09T04:13:04.951Z,4.86
2023-05-09T04:14:04.880Z,4.40
2023-05-09T04:15:04.986Z,4.92
2023-05-09T04:16:04.848Z,4.88
2023-05-09T04:17:04.926Z,4.78
2023-05-09T04:18:04.846Z,5.11
2023-05-09T04:19:04.778Z,5.26
2023-05-09T04:20:04.773Z,5.12
2023-05-09T04:21:04.739Z,5.73
2023-05-09T04:22:04.715Z,5.26
2023-05-09T04:23:04.719Z,4.87
2023-05-09T04:24:04.717Z,4.10
2023-05-09T04:25:04.654Z,4.53
2023-05-09T04:26:04.641Z,4.84
2023-05-09T04:27:04.650Z,5.70
2023-05-09T04:28:04.716Z,4.39
2023-05-09T04:29:04.599Z,4.36
2023-05-09T04:30:04.590Z,4.43
2023-05-09T04:31:04.600Z,4.82
2023-05-09T04:32:04.558Z,4.73
2023-05-09T04:33:04.593Z,4.42
2023-05-09T04:34:04.528Z,4.98
2023-05-09T04:35:04.481Z,4.11
2023-05-09T04:36:04.519Z,4.03
2023-05-09T04:37:04.498Z,4.50
2023-05-09T04:38:04.455Z,4.00
2023-05-09T04:39:04.427Z,4.14
2023-05-09T04:40:04.402Z,4.20
2023-05-09T04:41:04.394Z,4.38
2023-05-09T04:42:04.371Z,5.19
2023-05-09T04:43:04.351Z,4.93
2023-05-09T04:44:04.425Z,4.81
2023-05-09T04:45:04.344Z,4.86
2023-05-09T04:46:04.358Z,4.02
2023-05-09T04:47:04.300Z,4.73
2023-05-09T04:48:04.347Z,4.87
2023-05-09T04:49:04.260Z,4.88
2023-05-09T04:50:04.276Z,5.35
2023-05-09T04:51:04.268Z,6.25
2023-05-09T04:52:04.284Z,5.95
2023-05-09T04:53:04.277Z,6.55
2023-05-09T04:54:04.285Z,5.65
2023-05-09T04:55:04.269Z,5.77
2023-05-09T04:56:04.278Z,5.73
2023-05-09T04:57:16.559Z,7.11
2023-05-09T04:58:05.273Z,5.99
2023-05-09T04:59:04.287Z,6.84
2023-05-09T05:00:04.342Z,6.36
2023-05-09T05:01:04.225Z,6.21
2023-05-09T05:02:04.297Z,7.34
2023-05-09T05:03:04.255Z,10.10
2023-05-09T05:04:04.209Z,15.53
2023-05-09T05:05:11.693Z,7.01
2023-05-09T05:06:05.183Z,5.87
2023-05-09T05:07:04.195Z,4.62
2023-05-09T05:08:04.215Z,4.41
2023-05-09T05:09:04.134Z,3.88
2023-05-09T05:10:04.137Z,3.87
2023-05-09T05:11:04.096Z,2.97
2023-05-09T05:12:06.616Z,3.10
2023-05-09T05:13:04.117Z,3.18
2023-05-09T05:14:04.102Z,3.21
2023-05-09T05:15:04.064Z,2.81
2023-05-09T05:16:04.146Z,3.08
2023-05-09T05:17:04.040Z,3.22
2023-05-09T05:18:04.098Z,2.90
2023-05-09T05:19:04.007Z,3.85
2023-05-09T05:20:04.036Z,4.32
2023-05-09T05:21:03.978Z,3.56
2023-05-09T05:22:03.969Z,3.26
2023-05-09T05:23:03.980Z,3.70
2023-05-09T05:24:03.924Z,3.94
2023-05-09T05:25:03.933Z,3.53
2023-05-09T05:26:03.955Z,3.72
2023-05-09T05:27:03.954Z,3.66
2023-05-09T05:28:03.981Z,4.00
2023-05-09T05:29:03.937Z,3.83
2023-05-09T05:30:03.934Z,3.16
2023-05-09T05:31:03.958Z,3.37
2023-05-09T05:32:04.027Z,3.98
2023-05-09T05:33:03.967Z,3.12
2023-05-09T05:34:03.894Z,3.30
2023-05-09T05:35:03.913Z,3.81
2023-05-09T05:36:03.878Z,4.04
2023-05-09T05:37:03.870Z,3.79
2023-05-09T05:38:03.827Z,3.81
2023-05-09T05:39:03.809Z,3.71
2023-05-09T05:40:04.691Z,4.38
2023-05-09T05:41:03.851Z,3.75
2023-05-09T05:42:03.825Z,4.04
2023-05-09T05:43:04.678Z,3.66
2023-05-09T05:44:03.849Z,3.85
2023-05-09T05:45:03.857Z,3.65
2023-05-09T05:46:03.964Z,3.93
2023-05-09T05:47:03.828Z,3.61
2023-05-09T05:48:04.074Z,3.44
2023-05-09T05:49:04.686Z,3.61
2023-05-09T05:50:03.844Z,3.24
2023-05-09T05:51:03.811Z,3.78
2023-05-09T05:52:03.889Z,3.30
2023-05-09T05:53:03.806Z,3.28
2023-05-09T05:54:03.841Z,3.51
2023-05-09T05:55:04.764Z,3.50
2023-05-09T05:56:03.753Z,3.12
2023-05-09T05:57:03.737Z,3.08
2023-05-09T05:58:03.746Z,3.44
2023-05-09T05:59:03.685Z,3.30
2023-05-09T06:00:03.727Z,3.87
2023-05-09T06:01:04.213Z,3.15
2023-05-09T06:02:03.664Z,3.17
2023-05-09T06:03:03.756Z,3.41
2023-05-09T06:04:03.724Z,3.59
2023-05-09T06:05:03.829Z,2.91
2023-05-09T06:06:03.824Z,3.40
2023-05-09T06:07:03.747Z,3.82
2023-05-09T06:08:03.776Z,2.99
2023-05-09T06:09:04.971Z,3.66
2023-05-09T06:10:03.857Z,3.05
2023-05-09T06:11:03.831Z,3.31
2023-05-09T06:12:03.895Z,3.40
2023-05-09T06:13:03.974Z,2.84
2023-05-09T06:14:03.913Z,3.01
2023-05-09T06:15:03.922Z,3.02
2023-05-09T06:16:15.101Z,3.05
2023-05-09T06:17:05.711Z,3.39
2023-05-09T06:18:03.872Z,2.98
2023-05-09T06:19:03.978Z,3.34
2023-05-09T06:20:04.094Z,3.36
2023-05-09T06:21:03.757Z,3.71
2023-05-09T06:22:04.232Z,3.41
2023-05-09T06:23:03.690Z,2.86
2023-05-09T06:24:11.867Z,3.56
2023-05-09T06:25:04.632Z,3.01
2023-05-09T06:26:03.607Z,2.91
2023-05-09T06:27:03.563Z,2.98
2023-05-09T06:28:03.546Z,2.93
2023-05-09T06:29:03.505Z,3.41
2023-05-09T06:30:11.197Z,3.50
2023-05-09T06:31:04.405Z,2.97
2023-05-09T06:32:04.212Z,2.85
2023-05-09T06:33:03.528Z,2.84
2023-05-09T06:34:03.294Z,3.09
2023-05-09T06:35:03.236Z,3.38
2023-05-09T06:36:03.295Z,2.78
2023-05-09T06:37:03.230Z,3.24
2023-05-09T06:38:03.174Z,3.12
2023-05-09T06:39:03.128Z,3.25
2023-05-09T06:40:03.038Z,3.19
2023-05-09T06:41:03.106Z,2.80
2023-05-09T06:42:03.025Z,3.72
2023-05-09T06:43:04.201Z,3.24
2023-05-09T06:44:02.906Z,3.36
2023-05-09T06:45:03.233Z,3.18
2023-05-09T06:46:02.900Z,3.38
2023-05-09T06:47:02.810Z,3.45
2023-05-09T06:48:03.260Z,3.37
2023-05-09T06:49:02.781Z,3.73
2023-05-09T06:50:02.815Z,3.55
2023-05-09T06:51:02.892Z,3.84
2023-05-09T06:52:02.907Z,3.91
2023-05-09T06:53:02.876Z,4.65
2023-05-09T06:54:02.821Z,4.67
2023-05-09T06:55:02.813Z,4.70
2023-05-09T06:56:02.854Z,4.29
2023-05-09T06:57:03.714Z,4.09
2023-05-09T06:58:02.863Z,4.10
2023-05-09T06:59:02.863Z,3.98
2023-05-09T07:00:03.725Z,4.07
2023-05-09T07:01:02.877Z,4.04
2023-05-09T07:02:02.868Z,7.45
2023-05-09T07:03:02.899Z,4.54
2023-05-09T07:04:05.790Z,4.55
2023-05-09T07:05:03.853Z,4.74
2023-05-09T07:06:02.821Z,4.95
2023-05-09T07:07:02.708Z,7.74
2023-05-09T07:08:02.785Z,6.18
2023-05-09T07:09:02.721Z,4.20
2023-05-09T07:10:10.557Z,4.36
2023-05-09T07:11:03.566Z,3.95
2023-05-09T07:12:02.519Z,3.90
2023-05-09T07:13:02.514Z,3.59
2023-05-09T07:14:02.638Z,4.35
2023-05-09T07:15:02.571Z,4.14
2023-05-09T07:16:02.413Z,3.99
2023-05-09T07:17:21.395Z,3.95
2023-05-09T07:18:03.365Z,3.85
2023-05-09T07:19:03.227Z,3.71
2023-05-09T07:20:02.353Z,3.76
2023-05-09T07:21:02.725Z,3.13
2023-05-09T07:22:02.710Z,2.86
2023-05-09T07:23:02.301Z,3.27
2023-05-09T07:24:02.354Z,3.80
2023-05-09T07:25:02.235Z,3.65
2023-05-09T07:26:02.249Z,3.46
2023-05-09T07:27:02.256Z,3.89
2023-05-09T07:28:02.261Z,4.14
2023-05-09T07:29:02.244Z,3.64
2023-05-09T07:30:03.312Z,4.37
2023-05-09T07:31:02.266Z,4.44
2023-05-09T07:32:02.234Z,4.15
2023-05-09T07:33:02.233Z,6.59
2023-05-09T07:34:02.329Z,25.53
2023-05-09T07:35:02.344Z,12.14
2023-05-09T07:36:02.160Z,5.69
2023-05-09T07:37:02.743Z,8.32
2023-05-09T07:38:02.346Z,48.78
2023-05-09T07:39:02.027Z,28.83
2023-05-09T07:40:04.806Z,76.10
2023-05-09T07:41:02.751Z,52.75
2023-05-09T07:42:04.723Z,26.08
2023-05-09T07:43:01.765Z,10.10
2023-05-09T07:44:03.779Z,40.70
2023-05-09T07:46:21.026Z,57.01
2023-05-09T07:47:22.627Z,44.94
2023-05-09T07:48:21.148Z,7.86
2023-05-09T07:49:20.880Z,27.87
2023-05-09T07:50:21.884Z,16.00
2023-05-09T07:51:20.810Z,6.60
2023-05-09T07:52:20.795Z,4.49
2023-05-09T07:53:20.740Z,3.32
2023-05-09T07:54:20.700Z,2.81
2023-05-09T07:55:20.789Z,2.47
2023-05-09T07:56:20.628Z,2.57
2023-05-09T07:57:22.699Z,2.54
2023-05-09T07:58:20.817Z,2.42
2023-05-09T07:59:20.647Z,1.69
2023-05-09T08:00:20.705Z,2.60
2023-05-09T08:01:20.478Z,2.60
2023-05-09T08:02:20.485Z,1.74
2023-05-09T08:03:20.668Z,1.67
2023-05-09T08:04:20.463Z,1.05
2023-05-09T08:05:20.342Z,1.14
2023-05-09T08:06:20.313Z,1.03
2023-05-09T08:07:20.403Z,1.48
2023-05-09T08:08:20.186Z,1.80
2023-05-09T08:09:20.147Z,1.64
2023-05-09T08:10:20.080Z,1.77
2023-05-09T08:11:20.175Z,3.04
2023-05-09T08:12:20.003Z,2.58
2023-05-09T08:13:30.682Z,2.39
2023-05-09T08:14:20.029Z,2.14
2023-05-09T08:15:19.858Z,1.60
2023-05-09T08:16:20.855Z,1.44
2023-05-09T08:17:19.826Z,1.60
2023-05-09T08:18:20.592Z,2.48
2023-05-09T08:19:19.686Z,1.58
2023-05-09T08:20:19.665Z,1.17
2023-05-09T08:21:22.022Z,2.01
2023-05-09T08:22:19.635Z,1.76
2023-05-09T08:23:19.689Z,2.77
2023-05-09T08:24:19.429Z,2.22
2023-05-09T08:25:19.383Z,2.93
2023-05-09T08:26:19.366Z,2.79
2023-05-09T08:27:19.379Z,2.30
2023-05-09T08:28:19.232Z,2.22
2023-05-09T08:29:19.171Z,1.73
2023-05-09T08:30:19.126Z,1.66
2023-05-09T08:31:19.157Z,1.27
2023-05-09T08:32:19.031Z,1.59
2023-05-09T08:33:19.057Z,1.70
2023-05-09T08:34:19.639Z,1.32
2023-05-09T08:35:18.972Z,2.17
2023-05-09T08:36:20.546Z,1.60
2023-05-09T08:37:18.932Z,1.51
2023-05-09T08:38:18.842Z,0.86
2023-05-09T08:39:18.855Z,0.75
2023-05-09T08:40:18.763Z,0.82
2023-05-09T08:41:18.764Z,0.69
2023-05-09T08:42:18.736Z,0.74
2023-05-09T08:43:18.771Z,1.43
2023-05-09T08:44:18.616Z,0.59
2023-05-09T08:45:19.182Z,0.96
2023-05-09T08:46:18.458Z,0.94
2023-05-09T08:47:18.627Z,1.13
2023-05-09T08:48:18.343Z,0.51
2023-05-09T08:49:18.344Z,0.77
2023-05-09T08:50:18.461Z,1.32
2023-05-09T08:51:18.286Z,0.73
2023-05-09T08:52:18.422Z,0.61
2023-05-09T08:53:18.286Z,0.71
2023-05-09T08:54:20.650Z,0.60
2023-05-09T08:55:18.258Z,0.51
2023-05-09T08:56:18.125Z,0.80
2023-05-09T08:57:18.085Z,0.76
2023-05-09T08:58:17.960Z,0.99
2023-05-09T08:59:18.007Z,0.74
2023-05-09T09:00:20.263Z,0.80
2023-05-09T09:01:17.801Z,0.59
2023-05-09T09:02:17.734Z,0.94
2023-05-09T09:03:18.582Z,0.59
2023-05-09T09:04:17.652Z,0.85
2023-05-09T09:05:39.526Z,0.74
2023-05-09T09:06:18.485Z,0.84
2023-05-09T09:07:17.455Z,0.69
2023-05-09T09:08:20.089Z,0.89
2023-05-09T09:09:19.814Z,0.93
2023-05-09T09:10:17.489Z,0.79
2023-05-09T09:11:20.179Z,0.72
2023-05-09T09:12:17.564Z,0.79
2023-05-09T09:13:17.280Z,0.67
2023-05-09T09:14:17.199Z,0.82
2023-05-09T09:15:17.263Z,0.63
2023-05-09T09:16:17.163Z,0.76
2023-05-09T09:17:17.350Z,0.98
2023-05-09T09:18:17.160Z,0.56
2023-05-09T09:19:17.168Z,0.66
2023-05-09T09:20:17.199Z,1.07
2023-05-09T09:21:17.134Z,0.93
2023-05-09T09:22:19.589Z,0.82
2023-05-09T09:23:17.208Z,1.01
2023-05-09T09:24:18.235Z,1.06
2023-05-09T09:25:17.283Z,1.15
2023-05-09T09:26:17.156Z,1.04
2023-05-09T09:27:18.138Z,0.84
2023-05-09T09:28:18.221Z,2.31
2023-05-09T09:29:17.060Z,0.79
2023-05-09T09:30:17.188Z,1.07
2023-05-09T09:31:17.257Z,0.85
2023-05-09T09:32:17.048Z,0.86
2023-05-09T09:33:17.028Z,0.79
2023-05-09T09:34:17.026Z,1.12
2023-05-09T09:35:17.047Z,0.88
2023-05-09T09:36:17.025Z,1.15
2023-05-09T09:37:17.058Z,1.25
2023-05-09T09:38:16.939Z,1.26
2023-05-09T09:39:16.938Z,1.55
2023-05-09T09:40:17.172Z,1.25
2023-05-09T09:41:16.946Z,1.47
2023-05-09T09:42:18.746Z,0.78
2023-05-09T09:43:16.780Z,0.95
2023-05-09T09:44:17.749Z,1.07
2023-05-09T09:45:16.773Z,0.68
2023-05-09T09:46:16.918Z,0.86
2023-05-09T09:47:16.741Z,0.63
2023-05-09T09:48:16.682Z,0.50
2023-05-09T09:49:16.572Z,0.42
2023-05-09T09:50:16.727Z,0.36
2023-05-09T09:51:16.445Z,0.57
2023-05-09T09:52:16.370Z,0.35
2023-05-09T09:53:16.350Z,0.31
2023-05-09T09:54:16.389Z,0.37
2023-05-09T09:55:17.105Z,0.31
2023-05-09T09:56:16.183Z,0.54
2023-05-09T09:57:16.097Z,0.26
2023-05-09T09:58:16.037Z,0.32
2023-05-09T09:59:16.042Z,0.42
2023-05-09T10:00:16.275Z,0.37
2023-05-09T10:01:16.040Z,0.44
2023-05-09T10:02:15.808Z,0.39
2023-05-09T10:03:16.913Z,0.30
2023-05-09T10:04:15.815Z,0.47
2023-05-09T10:05:15.766Z,0.27
2023-05-09T10:06:15.545Z,0.34
2023-05-09T10:07:15.451Z,0.41
2023-05-09T10:08:15.382Z,0.53
2023-05-09T10:09:15.342Z,0.68
2023-05-09T10:10:15.418Z,0.67
2023-05-09T10:11:15.244Z,0.33
2023-05-09T10:12:15.181Z,0.42
2023-05-09T10:13:15.149Z,0.58
2023-05-09T10:14:15.079Z,0.46
2023-05-09T10:15:15.056Z,0.55
2023-05-09T10:16:15.029Z,0.59
2023-05-09T10:17:15.052Z,0.89
2023-05-09T10:18:15.232Z,0.55
2023-05-09T10:19:14.936Z,0.45
2023-05-09T10:20:14.974Z,0.38
2023-05-09T10:21:14.775Z,0.61
2023-05-09T10:22:14.706Z,0.58
2023-05-09T10:23:14.741Z,0.35
2023-05-09T10:24:14.582Z,0.44
2023-05-09T10:25:15.261Z,0.60
2023-05-09T10:26:14.528Z,0.32
2023-05-09T10:27:14.413Z,0.50
2023-05-09T10:28:15.100Z,0.38
2023-05-09T10:29:14.248Z,0.48
2023-05-09T10:30:14.177Z,0.55
2023-05-09T10:31:14.145Z,0.35
2023-05-09T10:32:14.034Z,0.52
2023-05-09T10:33:13.954Z,0.58
2023-05-09T10:34:14.122Z,0.34
2023-05-09T10:35:14.184Z,0.40
2023-05-09T10:36:13.774Z,0.37
2023-05-09T10:37:14.712Z,0.32
2023-05-09T10:38:14.607Z,0.37
2023-05-09T10:39:18.768Z,0.48
2023-05-09T10:40:13.492Z,0.49
2023-05-09T10:41:13.410Z,0.44
2023-05-09T10:42:13.333Z,0.22
2023-05-09T10:43:14.099Z,0.33
2023-05-09T10:44:13.256Z,0.26
2023-05-09T10:45:14.292Z,0.43
2023-05-09T10:46:14.137Z,0.46
2023-05-09T10:47:13.100Z,0.36
2023-05-09T10:48:13.025Z,0.35
2023-05-09T10:49:12.942Z,0.37
2023-05-09T10:50:12.881Z,0.32
2023-05-09T10:51:12.878Z,0.31
2023-05-09T10:52:15.582Z,0.37
2023-05-09T10:53:12.601Z,0.56
2023-05-09T10:54:12.492Z,0.32
2023-05-09T10:55:12.577Z,0.21
2023-05-09T10:56:12.321Z,0.61
2023-05-09T10:57:12.241Z,0.68
2023-05-09T10:58:12.283Z,0.33
2023-05-09T10:59:12.122Z,0.43
2023-05-09T11:00:12.025Z,0.53
2023-05-09T11:01:11.991Z,0.60
2023-05-09T11:02:11.875Z,0.60
2023-05-09T11:03:11.891Z,0.52
2023-05-09T11:04:11.734Z,0.35
2023-05-09T11:05:11.744Z,0.38
2023-05-09T11:06:11.519Z,0.67
2023-05-09T11:07:11.527Z,0.54
2023-05-09T11:08:11.365Z,0.49
2023-05-09T11:09:11.269Z,0.42
2023-05-09T11:10:11.650Z,0.55
2023-05-09T11:11:11.129Z,0.49
2023-05-09T11:12:11.036Z,0.65
2023-05-09T11:13:15.688Z,0.40
2023-05-09T11:14:10.843Z,0.58
2023-05-09T11:15:10.794Z,0.44
2023-05-09T11:16:10.770Z,0.47
2023-05-09T11:17:11.627Z,0.60
2023-05-09T11:18:10.664Z,0.61
2023-05-09T11:19:10.563Z,0.45
2023-05-09T11:20:10.713Z,0.43
2023-05-09T11:21:10.534Z,0.40
2023-05-09T11:22:10.339Z,0.40
2023-05-09T11:23:10.326Z,0.51
2023-05-09T11:24:10.165Z,0.45
2023-05-09T11:25:10.145Z,0.48
2023-05-09T11:26:10.045Z,0.47
2023-05-09T11:27:10.641Z,0.71
2023-05-09T11:28:09.994Z,0.43
2023-05-09T11:29:10.617Z,0.50
2023-05-09T11:30:10.057Z,0.33
2023-05-09T11:31:10.058Z,0.71
2023-05-09T11:32:10.845Z,0.55
2023-05-09T11:33:10.111Z,0.65
2023-05-09T11:34:10.020Z,0.48
2023-05-09T11:35:10.254Z,0.53
2023-05-09T11:36:09.928Z,0.46
2023-05-09T11:37:09.893Z,0.97
2023-05-09T11:38:09.867Z,1.10
2023-05-09T11:39:10.814Z,0.88
2023-05-09T11:40:09.871Z,0.65
2023-05-09T11:41:09.725Z,0.96
2023-05-09T11:42:09.742Z,0.83
2023-05-09T11:43:09.630Z,0.59
2023-05-09T11:44:09.653Z,0.53
2023-05-09T11:45:09.585Z,0.52
2023-05-09T11:46:09.611Z,0.52
2023-05-09T11:47:09.548Z,0.40
2023-05-09T11:48:09.547Z,0.67
2023-05-09T11:49:11.340Z,0.42
2023-05-09T11:50:09.631Z,0.42
2023-05-09T11:51:09.558Z,0.23
2023-05-09T11:52:09.574Z,0.41
2023-05-09T11:53:09.604Z,0.48
2023-05-09T11:54:09.511Z,0.60
2023-05-09T11:55:11.488Z,0.45
2023-05-09T11:56:09.390Z,0.38
2023-05-09T11:57:09.364Z,0.31
2023-05-09T11:58:09.268Z,0.54
2023-05-09T11:59:09.222Z,0.42
2023-05-09T12:00:09.177Z,0.64
2023-05-09T12:01:11.256Z,0.43
2023-05-09T12:02:09.069Z,0.59
2023-05-09T12:03:09.028Z,0.58
2023-05-09T12:04:08.945Z,0.72
2023-05-09T12:05:08.830Z,0.53
2023-05-09T12:06:08.701Z,0.48
2023-05-09T12:07:08.564Z,0.52
2023-05-09T12:08:08.535Z,0.73
2023-05-09T12:09:08.434Z,0.46
2023-05-09T12:10:08.362Z,0.52
2023-05-09T12:11:08.408Z,0.65
2023-05-09T12:12:08.199Z,0.48
2023-05-09T12:13:08.202Z,0.49
2023-05-09T12:14:08.185Z,0.43
2023-05-09T12:15:08.008Z,0.41
2023-05-09T12:16:07.955Z,0.73
2023-05-09T12:17:07.865Z,0.51
2023-05-09T12:18:07.849Z,0.56
2023-05-09T12:19:07.685Z,0.59
2023-05-09T12:20:07.642Z,0.27
2023-05-09T12:21:07.579Z,0.36
2023-05-09T12:22:07.533Z,0.65
2023-05-09T12:23:07.432Z,0.48
2023-05-09T12:24:07.409Z,0.50
2023-05-09T12:25:07.366Z,0.54
2023-05-09T12:26:07.289Z,0.49
2023-05-09T12:27:07.200Z,0.45
2023-05-09T12:28:07.184Z,0.57
2023-05-09T12:29:07.156Z,0.48
2023-05-09T12:30:07.100Z,1.89
2023-05-09T12:31:07.122Z,0.34
2023-05-09T12:32:06.991Z,0.42
2023-05-09T12:33:06.922Z,0.42
2023-05-09T12:34:06.831Z,0.62
2023-05-09T12:35:06.799Z,0.58
2023-05-09T12:36:06.770Z,0.57
2023-05-09T12:37:06.699Z,0.50
2023-05-09T12:38:06.669Z,0.52
2023-05-09T12:39:06.620Z,0.69
2023-05-09T12:40:06.692Z,0.48
2023-05-09T12:41:06.761Z,0.57
2023-05-09T12:42:06.416Z,0.50
2023-05-09T12:43:06.435Z,0.34
2023-05-09T12:44:06.297Z,0.68
2023-05-09T12:45:06.282Z,0.57
2023-05-09T12:46:06.179Z,0.67
2023-05-09T12:47:06.164Z,0.59
2023-05-09T12:48:06.140Z,0.33
2023-05-09T12:49:06.016Z,0.45
2023-05-09T12:50:05.978Z,0.29
2023-05-09T12:51:05.928Z,0.32
2023-05-09T12:52:07.808Z,0.53
2023-05-09T12:53:05.839Z,0.56
2023-05-09T12:54:05.782Z,0.41
2023-05-09T12:55:05.736Z,0.31
2023-05-09T12:56:05.696Z,0.39
2023-05-09T12:57:05.700Z,0.22
2023-05-09T12:58:05.638Z,0.45
2023-05-09T12:59:05.621Z,0.31
2023-05-09T13:00:05.548Z,0.30
2023-05-09T13:01:05.490Z,0.32
2023-05-09T13:02:05.511Z,0.26
2023-05-09T13:03:05.527Z,0.35
2023-05-09T13:04:05.394Z,0.59
2023-05-09T13:05:05.346Z,0.61
2023-05-09T13:06:05.283Z,0.58
2023-05-09T13:07:05.241Z,0.49
2023-05-09T13:08:05.215Z,0.42
2023-05-09T13:09:05.177Z,0.49
2023-05-09T13:10:05.212Z,0.49
2023-05-09T13:11:15.514Z,0.43
2023-05-09T13:12:06.672Z,0.41
2023-05-09T13:13:04.988Z,0.42